createdAt,value
2018-11-06T00:01:21.000Z,17.5
2018-11-06T00:11:22.000Z,17.5
2018-11-06T00:21:21.000Z,17.5
2018-11-06T00:31:22.000Z,17.4
2018-11-06T00:41:21.000Z,17.4
2018-11-06T00:51:21.000Z,17.5
2018-11-06T01:01:21.000Z,17.3
2018-11-06T01:11:21.000Z,17.4
2018-11-06T01:21:21.000Z,17.4
2018-11-06T01:31:25.000Z,17.3
2018-11-06T01:41:21.000Z,17.3
2018-11-06T01:51:21.000Z,17.3
2018-11-06T02:01:21.000Z,17.3
2018-11-06T02:11:21.000Z,17.2
2018-11-06T02:21:21.000Z,17.1
2018-11-06T02:31:21.000Z,17.1
2018-11-06T02:41:21.000Z,17.1
2018-11-06T02:51:21.000Z,17
2018-11-06T03:01:21.000Z,17
2018-11-06T03:11:21.000Z,16.9
2018-11-06T03:21:21.000Z,16.8
2018-11-06T03:31:21.000Z,16.8
2018-11-06T03:41:21.000Z,16.8
2018-11-06T03:51:21.000Z,16.7
2018-11-06T04:01:21.000Z,16.7
2018-11-06T04:11:22.000Z,16.6
2018-11-06T04:21:21.000Z,16.6
2018-11-06T04:31:22.000Z,16.5
2018-11-06T04:41:22.000Z,16.5
2018-11-06T04:51:22.000Z,16.5
2018-11-06T05:01:21.000Z,16.5
2018-11-06T05:11:22.000Z,16.4
2018-11-06T05:21:22.000Z,16.4
2018-11-06T05:31:22.000Z,16.4
2018-11-06T05:41:22.000Z,16.3
2018-11-06T05:51:22.000Z,16.3
2018-11-06T06:01:22.000Z,16.3
2018-11-06T06:11:22.000Z,16.3
2018-11-06T06:21:22.000Z,17
2018-11-06T06:31:22.000Z,17.5
2018-11-06T06:41:22.000Z,18.1
2018-11-06T06:51:22.000Z,18.5
2018-11-06T07:01:22.000Z,18.7
2018-11-06T07:11:22.000Z,18.8
2018-11-06T07:21:22.000Z,18.9
2018-11-06T07:31:22.000Z,18.9
2018-11-06T07:41:22.000Z,19
2018-11-06T07:51:22.000Z,19
2018-11-06T08:01:22.000Z,19.1
2018-11-06T08:11:22.000Z,19.2
2018-11-06T08:21:22.000Z,19.2
2018-11-06T08:31:22.000Z,19.2
2018-11-06T08:41:23.000Z,19.3
2018-11-06T08:51:22.000Z,19.3
2018-11-06T09:01:22.000Z,19.3
2018-11-06T09:11:22.000Z,19.3
2018-11-06T09:21:24.000Z,19.3
2018-11-06T09:31:22.000Z,19.5
2018-11-06T09:41:22.000Z,19.7
2018-11-06T09:51:22.000Z,19.9
2018-11-06T10:01:22.000Z,19.9
2018-11-06T10:11:23.000Z,20
2018-11-06T10:31:22.000Z,20.1
2018-11-06T10:41:24.000Z,20.2
2018-11-06T10:51:22.000Z,20.3
2018-11-06T11:01:22.000Z,20.1
2018-11-06T11:11:24.000Z,20.1
2018-11-06T11:21:22.000Z,20.1
2018-11-06T11:31:23.000Z,20
2018-11-06T11:41:23.000Z,20.1
2018-11-06T11:51:24.000Z,20.1
2018-11-06T12:01:22.000Z,20
2018-11-06T12:11:23.000Z,20.1
2018-11-06T12:21:23.000Z,20.2
2018-11-06T12:31:23.000Z,20.2
2018-11-06T12:41:24.000Z,20.2
2018-11-06T12:51:23.000Z,20.2
2018-11-06T13:01:23.000Z,20.1
2018-11-06T13:11:23.000Z,20.2
2018-11-06T13:21:23.000Z,20.2
2018-11-06T13:31:23.000Z,20.3
2018-11-06T13:41:23.000Z,20.3
2018-11-06T13:51:23.000Z,20.3
2018-11-06T14:01:23.000Z,20.3
2018-11-06T14:11:23.000Z,20.2
2018-11-06T14:21:23.000Z,20.3
2018-11-06T14:31:23.000Z,20.3
2018-11-06T14:41:24.000Z,20.3
2018-11-06T14:51:23.000Z,20.4
2018-11-06T15:01:23.000Z,20.4
2018-11-06T15:11:23.000Z,20.4
2018-11-06T15:21:23.000Z,20.4
2018-11-06T15:31:23.000Z,20.3
2018-11-06T15:41:23.000Z,20.3
2018-11-06T15:51:23.000Z,20.3
2018-11-06T16:01:25.000Z,20.3
2018-11-06T16:11:23.000Z,20.3
2018-11-06T16:21:23.000Z,20.4
2018-11-06T16:31:23.000Z,20.3
2018-11-06T16:41:26.000Z,20.4
2018-11-06T16:51:23.000Z,20.6
2018-11-06T17:01:23.000Z,20.5
2018-11-06T17:11:23.000Z,20.5
2018-11-06T17:21:23.000Z,20.5
2018-11-06T17:31:23.000Z,20.5
2018-11-06T17:41:23.000Z,20.4
2018-11-06T18:01:25.000Z,20.4
2018-11-06T18:11:23.000Z,20.3
2018-11-06T18:21:24.000Z,20.3
2018-11-06T18:31:24.000Z,20.4
2018-11-06T18:41:25.000Z,20.5
2018-11-06T18:51:27.000Z,20.5
2018-11-06T19:01:24.000Z,20.5
2018-11-06T19:11:24.000Z,20.6
2018-11-06T19:21:24.000Z,20.6
2018-11-06T19:31:24.000Z,20.6
2018-11-06T19:41:24.000Z,20.6
2018-11-06T20:01:24.000Z,20.6
2018-11-06T20:11:24.000Z,20.6
2018-11-06T20:21:24.000Z,20.6
2018-11-06T20:31:24.000Z,20.6
2018-11-06T20:41:24.000Z,20.7
2018-11-06T20:51:24.000Z,20.6
2018-11-06T21:01:24.000Z,20.6
2018-11-06T21:11:24.000Z,20.6
2018-11-06T21:21:24.000Z,20.6
2018-11-06T21:31:24.000Z,20.2
2018-11-06T21:41:24.000Z,20.4
2018-11-06T21:51:26.000Z,20.5
2018-11-06T22:01:24.000Z,20.6
2018-11-06T22:11:24.000Z,20.7
2018-11-06T22:21:24.000Z,20.8
2018-11-06T22:31:24.000Z,19.8
2018-11-06T22:51:24.000Z,19.2
2018-11-06T23:01:24.000Z,18.7
2018-11-06T23:11:24.000Z,18.5
2018-11-06T23:21:24.000Z,18.4
2018-11-06T23:31:24.000Z,18.4
2018-11-06T23:41:24.000Z,18.4
2018-11-06T23:51:24.000Z,18.4
